Time;durP1;ratioP1;P1;durP2;ratioP2;P2;SDS_P1;SDS_P2;PMS_P1;PMS_P2;Temp;Humidity;BMP_temperature;BMP_pressure;BME280_temperature;BME280_humidity;BME280_pressure;Samples;Min_cycle;Max_cycle;Signal;HPM_P1;HPM_P2
2022/10/30 00:08:19;;;;;;;2.60;2.05;;;20.90;59.10;;;;;;20641260;28;20030;-74
2022/10/30 00:18:20;;;;;;;2.60;1.50;;;20.90;59.10;;;;;;20656133;28;20464;-74
2022/10/30 00:28:20;;;;;;;4.10;1.73;;;20.80;59.10;;;;;;20648880;28;20022;-74
2022/10/30 00:38:21;;;;;;;2.88;1.70;;;20.80;59.10;;;;;;20669172;28;20041;-74
2022/10/30 00:48:23;;;;;;;2.25;1.55;;;20.90;59.20;;;;;;20654689;28;20029;-74
2022/10/30 00:58:27;;;;;;;3.20;1.88;;;20.80;59.20;;;;;;20640761;28;20169;-73
2022/10/30 01:08:27;;;;;;;2.28;1.58;;;20.80;59.20;;;;;;20685829;28;20113;-74
2022/10/30 01:18:41;;;;;;;2.70;1.73;;;20.80;59.30;;;;;;20658918;28;20129;-74
2022/10/30 01:28:54;;;;;;;2.50;1.48;;;20.80;59.30;;;;;;20652765;28;20036;-74
2022/10/30 01:39:11;;;;;;;2.38;1.38;;;20.70;59.30;;;;;;20679378;28;20034;-74
2022/10/30 01:49:27;;;;;;;2.45;1.75;;;20.70;59.30;;;;;;20643666;28;20037;-74
2022/10/30 01:59:47;;;;;;;;;;;20.70;59.40;;;;;;20675619;28;20133;-73
2022/10/30 02:09:50;;;;;;;2.40;1.50;;;20.70;59.50;;;;;;21008847;23;19957;-73
2022/10/30 02:19:50;;;;;;;3.28;1.98;;;20.70;59.50;;;;;;20636948;28;20038;-73
2022/10/30 02:29:51;;;;;;;4.68;1.48;;;20.70;59.60;;;;;;20663346;28;20047;-74
2022/10/30 02:39:52;;;;;;;2.80;1.77;;;20.70;59.60;;;;;;20652967;28;20425;-73
2022/10/30 02:49:53;;;;;;;3.28;1.83;;;20.60;59.60;;;;;;20668484;28;20050;-73
2022/10/30 02:59:53;;;;;;;3.70;1.85;;;20.60;59.70;;;;;;20650333;28;20032;-72
2022/10/30 03:09:54;;;;;;;2.40;1.67;;;20.60;59.70;;;;;;20677781;28;20036;-73
2022/10/30 03:19:55;;;;;;;2.75;1.65;;;20.60;60.40;;;;;;20661603;28;20102;-73
2022/10/30 03:29:55;;;;;;;3.65;1.67;;;20.60;59.70;;;;;;20655319;28;20493;-73
2022/10/30 03:39:58;;;;;;;3.33;1.90;;;20.60;59.80;;;;;;20665212;28;20040;-73
2022/10/30 03:49:59;;;;;;;2.85;1.77;;;20.60;59.90;;;;;;20652458;28;20034;-73
2022/10/30 04:00:01;;;;;;;2.92;2.00;;;20.50;59.80;;;;;;20663565;28;20112;-74
2022/10/30 04:10:14;;;;;;;3.40;2.00;;;20.50;59.80;;;;;;20658823;28;20074;-73
2022/10/30 04:20:15;;;;;;;3.17;2.08;;;20.50;59.90;;;;;;20659067;28;20026;-73
2022/10/30 04:30:20;;;;;;;4.28;2.08;;;20.50;59.90;;;;;;20670714;28;20045;-74
2022/10/30 04:40:22;;;;;;;2.80;1.65;;;20.40;59.90;;;;;;20662579;28;20053;-74
2022/10/30 04:50:29;;;;;;;3.85;1.88;;;20.40;59.90;;;;;;20656271;28;20042;-73
2022/10/30 05:00:30;;;;;;;3.22;1.90;;;20.40;60.00;;;;;;20678826;28;20045;-73
2022/10/30 05:10:39;;;;;;;3.35;1.90;;;20.40;60.00;;;;;;20668509;28;20389;-73
2022/10/30 05:20:40;;;;;;;2.17;1.60;;;20.40;60.00;;;;;;20665523;28;20120;-74
2022/10/30 05:30:43;;;;;;;3.30;2.25;;;20.40;60.00;;;;;;20679563;28;20034;-74
2022/10/30 05:40:54;;;;;;;2.55;1.60;;;20.40;60.00;;;;;;20671529;28;20029;-74
2022/10/30 05:50:55;;;;;;;2.72;1.73;;;20.30;60.00;;;;;;20648021;28;20504;-74
2022/10/30 06:01:05;;;;;;;6.53;2.08;;;20.30;60.00;;;;;;20664825;28;20380;-75
2022/10/30 06:11:27;;;;;;;;;;;20.30;60.00;;;;;;20679858;28;20049;-74
2022/10/30 06:21:31;;;;;;;2.25;1.73;;;20.30;60.10;;;;;;20705419;28;19975;-75
2022/10/30 06:31:55;;;;;;;6.13;2.15;;;20.20;60.10;;;;;;20641067;28;20116;-75
2022/10/30 06:41:56;;;;;;;4.28;1.58;;;20.20;60.20;;;;;;20696677;28;20047;-77
2022/10/30 06:52:21;;;;;;;4.57;1.70;;;20.20;60.10;;;;;;20671158;28;20046;-77
2022/10/30 07:02:23;;;;;;;3.95;1.85;;;20.20;60.10;;;;;;20667943;28;20103;-72
2022/10/30 07:12:33;;;;;;;5.28;1.85;;;20.20;60.00;;;;;;20653508;28;20053;-73
2022/10/30 07:22:43;;;;;;;2.72;1.83;;;20.20;60.00;;;;;;20664165;28;20025;-77
2022/10/30 07:32:44;;;;;;;5.90;1.92;;;20.20;60.00;;;;;;20658512;28;20042;-75
2022/10/30 07:43:12;;;;;;;3.58;1.95;;;20.20;60.00;;;;;;20677098;28;20022;-78
2022/10/30 07:53:45;;;;;;;5.47;2.10;;;20.20;60.00;;;;;;20661975;28;20038;-81
2022/10/30 08:03:45;;;;;;;6.30;1.77;;;20.20;60.00;;;;;;20682451;28;20440;-79
2022/10/30 08:13:55;;;;;;;3.33;1.92;;;20.10;60.10;;;;;;20680753;28;20057;-79
2022/10/30 08:23:57;;;;;;;11.30;2.70;;;20.20;60.30;;;;;;20683373;28;20544;-79
2022/10/30 08:34:01;;;;;;;5.10;2.08;;;20.30;60.50;;;;;;20671729;28;20097;-77
2022/10/30 08:44:08;;;;;;;4.80;2.08;;;20.40;60.50;;;;;;20685102;28;20031;-77
2022/10/30 08:54:31;;;;;;;7.15;2.90;;;20.40;60.50;;;;;;20687729;28;20038;-73
2022/10/30 09:04:32;;;;;;;4.78;1.90;;;20.50;60.50;;;;;;20662547;28;20543;-74
2022/10/30 09:14:59;;;;;;;5.20;1.63;;;20.60;60.30;;;;;;20683593;28;20038;-73
2022/10/30 09:25:01;;;;;;;4.07;1.88;;;20.60;60.00;;;;;;20661884;28;20054;-73
2022/10/30 09:35:21;;;;;;;2.53;1.73;;;20.70;59.80;;;;;;20675089;28;20029;-75
2022/10/30 09:45:44;;;;;;;4.43;1.92;;;20.80;59.70;;;;;;20653869;28;20440;-72
2022/10/30 09:55:46;;;;;;;4.60;2.00;;;20.90;59.30;;;;;;20666844;28;20037;-72
2022/10/30 10:05:50;;;;;;;4.30;1.77;;;21.00;59.10;;;;;;20664299;28;20069;-73
2022/10/30 10:16:19;;;;;;;2.60;1.52;;;21.10;58.80;;;;;;20648028;28;20130;-73
2022/10/30 10:26:46;;;;;;;6.20;1.48;;;21.30;58.70;;;;;;20661313;28;20057;-77
2022/10/30 10:37:10;;;;;;;4.15;1.75;;;21.40;58.50;;;;;;20651624;28;20042;-74
2022/10/30 10:47:48;;;;;;;2.42;1.60;;;21.50;58.20;;;;;;20650973;28;20480;-74
2022/10/30 10:57:48;;;;;;;3.58;1.60;;;21.60;57.80;;;;;;20681110;28;20120;-74
2022/10/30 11:07:49;;;;;;;4.15;2.05;;;21.70;57.50;;;;;;20646688;28;20720;-74
2022/10/30 11:17:55;;;;;;;4.85;2.55;;;21.90;57.00;;;;;;20645075;28;20026;-74
2022/10/30 11:27:57;;;;;;;3.65;2.05;;;21.90;56.90;;;;;;20674872;28;20041;-75
2022/10/30 11:38:14;;;;;;;5.03;1.98;;;22.10;56.60;;;;;;20654434;28;20045;-74
2022/10/30 11:48:36;;;;;;;7.63;1.88;;;22.20;56.40;;;;;;20661162;28;20440;-73
2022/10/30 11:58:37;;;;;;;9.10;2.38;;;22.40;56.20;;;;;;20618910;28;20045;-73
2022/10/30 12:08:38;;;;;;;4.30;2.00;;;22.50;55.90;;;;;;20647597;28;20078;-75
2022/10/30 12:18:39;;;;;;;6.32;2.17;;;22.70;56.50;;;;;;20681177;28;20042;-70
2022/10/30 12:28:39;;;;;;;5.20;1.80;;;22.50;55.80;;;;;;20692275;28;20468;-76
2022/10/30 12:38:46;;;;;;;5.97;1.92;;;22.20;57.40;;;;;;20679049;28;20034;-73
2022/10/30 12:48:54;;;;;;;5.57;2.33;;;21.90;57.90;;;;;;20646274;28;20030;-73
2022/10/30 12:59:12;;;;;;;8.32;1.88;;;21.60;58.80;;;;;;20675231;28;20334;-73
2022/10/30 13:09:43;;;;;;;6.88;1.60;;;21.30;59.40;;;;;;20683185;28;20117;-74
2022/10/30 13:19:44;;;;;;;9.50;2.42;;;21.30;59.60;;;;;;20655966;28;20046;-73
2022/10/30 13:29:50;;;;;;;6.07;1.80;;;21.40;59.40;;;;;;20690429;28;20061;-74
2022/10/30 13:40:13;;;;;;;6.72;1.77;;;21.50;59.50;;;;;;20661632;28;20117;-75
2022/10/30 13:50:47;;;;;;;5.72;1.92;;;21.50;59.40;;;;;;20667912;28;20128;-75
2022/10/30 14:01:03;;;;;;;8.38;2.97;;;21.60;59.40;;;;;;20663333;28;20481;-72
2022/10/30 14:11:04;;;;;;;12.05;2.38;;;21.70;59.20;;;;;;20673358;28;20038;-73
2022/10/30 14:21:33;;;;;;;8.57;2.25;;;21.70;59.40;;;;;;20702305;28;20506;-71
2022/10/30 14:31:34;;;;;;;4.07;2.75;;;21.70;59.40;;;;;;20695330;28;20049;-72
2022/10/30 14:42:13;;;;;;;6.55;2.10;;;21.60;59.30;;;;;;20669812;28;20495;-73
2022/10/30 14:52:22;;;;;;;7.38;2.33;;;21.60;59.40;;;;;;20659933;28;20126;-73
2022/10/30 15:02:34;;;;;;;8.52;2.72;;;21.60;59.40;;;;;;20643246;28;20046;-74
2022/10/30 15:13:19;;;;;;;5.72;2.00;;;21.50;59.40;;;;;;20656111;28;20036;-73
2022/10/30 15:23:28;;;;;;;3.42;1.92;;;21.50;59.40;;;;;;20659665;28;20042;-74
2022/10/30 15:33:34;;;;;;;4.38;1.90;;;21.50;59.50;;;;;;20673512;28;20042;-74
2022/10/30 15:43:36;;;;;;;3.92;1.95;;;21.50;59.50;;;;;;20660077;28;20121;-73
2022/10/30 15:53:56;;;;;;;5.28;1.80;;;21.40;59.50;;;;;;20647501;28;20070;-74
2022/10/30 16:03:56;;;;;;;3.60;1.60;;;21.40;59.50;;;;;;20652252;28;20484;-74
2022/10/30 16:13:57;;;;;;;4.93;2.20;;;21.40;59.60;;;;;;20671653;28;20041;-74
2022/10/30 16:23:59;;;;;;;3.83;1.65;;;21.30;59.60;;;;;;20624242;28;20061;-74
2022/10/30 16:34:01;;;;;;;4.22;1.55;;;21.30;59.60;;;;;;20622549;28;20034;-74
2022/10/30 16:44:11;;;;;;;3.50;1.70;;;21.30;59.60;;;;;;20663152;28;20096;-76
2022/10/30 16:54:17;;;;;;;4.55;1.63;;;21.20;59.70;;;;;;20683867;28;20133;-74
2022/10/30 17:04:18;;;;;;;3.58;1.52;;;21.20;59.70;;;;;;20649064;28;20056;-73
2022/10/30 17:14:22;;;;;;;2.50;1.42;;;21.20;59.80;;;;;;20680179;28;20042;-72
2022/10/30 17:24:33;;;;;;;3.53;1.60;;;21.20;59.80;;;;;;20651235;28;20042;-77
2022/10/30 17:34:36;;;;;;;2.33;1.17;;;21.20;59.90;;;;;;20673572;28;20022;-73
2022/10/30 17:44:37;;;;;;;2.13;1.50;;;21.10;59.90;;;;;;20689835;28;20049;-76
2022/10/30 17:54:38;;;;;;;4.13;1.40;;;21.10;59.90;;;;;;20658078;28;20405;-76
2022/10/30 18:04:42;;;;;;;3.83;1.20;;;21.10;60.00;;;;;;20676112;28;20289;-76
2022/10/30 18:14:44;;;;;;;3.10;1.38;;;21.00;60.00;;;;;;20687175;28;20041;-75
2022/10/30 18:24:45;;;;;;;3.40;1.80;;;21.00;60.00;;;;;;20686680;28;20208;-75
2022/10/30 18:34:45;;;;;;;2.55;1.65;;;21.00;60.00;;;;;;20692816;28;20137;-74
2022/10/30 18:44:46;;;;;;;2.95;1.55;;;20.90;60.70;;;;;;20645297;28;20396;-74
2022/10/30 18:54:46;;;;;;;3.07;1.50;;;20.90;60.20;;;;;;20660426;28;20524;-76
2022/10/30 19:04:47;;;;;;;2.50;1.37;;;20.80;60.20;;;;;;20684195;28;20379;-75
2022/10/30 19:14:49;;;;;;;3.20;1.65;;;20.80;60.30;;;;;;20659821;28;20646;-77
2022/10/30 19:24:51;;;;;;;2.53;1.55;;;20.70;60.30;;;;;;20674765;28;20072;-75
2022/10/30 19:34:53;;;;;;;3.08;1.60;;;20.80;60.50;;;;;;20662275;28;20144;-76
2022/10/30 19:44:54;;;;;;;2.63;1.80;;;20.70;60.50;;;;;;20684090;28;20117;-76
2022/10/30 19:54:54;;;;;;;3.22;1.63;;;20.60;60.50;;;;;;20653049;28;20042;-74
2022/10/30 20:04:55;;;;;;;2.88;1.48;;;20.70;60.60;;;;;;20680516;28;20049;-74
2022/10/30 20:14:56;;;;;;;2.28;1.67;;;20.60;60.60;;;;;;20657868;28;20116;-74
2022/10/30 20:24:56;;;;;;;4.57;1.50;;;20.60;60.60;;;;;;20666365;28;20034;-73
2022/10/30 20:34:57;;;;;;;3.37;1.50;;;20.50;60.60;;;;;;20661759;28;20298;-74
2022/10/30 20:44:57;;;;;;;5.53;1.88;;;20.50;60.70;;;;;;20653076;28;20824;-74
2022/10/30 20:54:58;;;;;;;2.97;1.60;;;20.50;60.80;;;;;;20677731;28;20051;-72
2022/10/30 21:04:59;;;;;;;2.33;1.52;;;20.50;60.80;;;;;;20654652;28;20519;-73
2022/10/30 21:15:04;;;;;;;2.90;1.60;;;20.40;60.80;;;;;;20676017;28;20538;-73
2022/10/30 21:25:05;;;;;;;3.08;2.05;;;20.40;60.90;;;;;;20685497;28;20069;-74
2022/10/30 21:35:06;;;;;;;5.28;2.00;;;20.40;60.90;;;;;;20681108;28;20476;-73
2022/10/30 21:45:07;;;;;;;2.85;1.52;;;20.40;60.90;;;;;;20655892;28;20053;-73
2022/10/30 21:55:08;;;;;;;3.08;1.73;;;20.30;60.90;;;;;;20648965;28;20036;-72
2022/10/30 22:05:09;;;;;;;2.70;1.83;;;20.30;61.00;;;;;;20666224;28;20478;-73
2022/10/30 22:15:09;;;;;;;2.85;1.75;;;20.30;61.00;;;;;;20641373;28;20058;-73
2022/10/30 22:25:10;;;;;;;3.03;2.35;;;20.20;61.00;;;;;;20658909;28;20030;-74
2022/10/30 22:35:11;;;;;;;2.22;1.50;;;20.20;61.00;;;;;;20677687;28;20061;-74
2022/10/30 22:45:12;;;;;;;3.92;1.77;;;20.20;61.00;;;;;;20667953;28;20034;-74
2022/10/30 22:55:13;;;;;;;4.32;2.03;;;20.20;61.10;;;;;;20658917;28;20034;-73
2022/10/30 23:05:14;;;;;;;3.95;2.03;;;20.20;61.10;;;;;;20666090;28;20392;-73
2022/10/30 23:15:14;;;;;;;4.20;1.77;;;20.10;61.10;;;;;;20664673;28;20432;-73
2022/10/30 23:25:15;;;;;;;3.80;1.88;;;20.10;61.00;;;;;;20658657;28;20372;-72
2022/10/30 23:35:16;;;;;;;3.22;1.90;;;20.10;61.10;;;;;;20665468;28;20038;-73
2022/10/30 23:45:16;;;;;;;4.38;2.10;;;20.10;61.10;;;;;;20683023;28;20120;-74
2022/10/30 23:55:17;;;;;;;3.15;2.25;;;20.00;61.10;;;;;;20642098;28;20093;-73
